createdAt,value
2023-04-16T00:01:24.547Z,99201.18
2023-04-16T00:03:53.227Z,99202.76
2023-04-16T00:06:22.947Z,99202.42
2023-04-16T00:08:51.786Z,99207.74
2023-04-16T00:11:20.617Z,99206.22
2023-04-16T00:13:49.913Z,99204.43
2023-04-16T00:16:18.311Z,99204.64
2023-04-16T00:18:46.947Z,99204.91
2023-04-16T00:21:15.662Z,99205.98
2023-04-16T00:23:43.860Z,99207.34
2023-04-16T00:26:12.419Z,99212.06
2023-04-16T00:28:41.819Z,99207.27
2023-04-16T00:31:10.116Z,99207.00
2023-04-16T00:33:38.621Z,99208.94
2023-04-16T00:36:08.401Z,99210.91
2023-04-16T00:38:38.002Z,99210.57
2023-04-16T00:41:07.181Z,99212.38
2023-04-16T00:43:35.553Z,99210.80
2023-04-16T00:46:05.126Z,99209.82
2023-04-16T00:48:34.356Z,99209.91
2023-04-16T00:51:04.930Z,99209.52
2023-04-16T00:53:34.430Z,99208.88
2023-04-16T00:56:03.713Z,99207.39
2023-04-16T00:58:32.895Z,99206.91
2023-04-16T01:01:01.566Z,99210.39
2023-04-16T01:03:41.297Z,99209.00
2023-04-16T01:06:09.964Z,99206.38
2023-04-16T01:08:38.584Z,99202.40
2023-04-16T01:11:07.166Z,99201.20
2023-04-16T01:13:39.577Z,99197.52
2023-04-16T01:16:11.696Z,99194.08
2023-04-16T01:18:40.628Z,99192.09
2023-04-16T01:21:10.061Z,99191.09
2023-04-16T01:23:38.575Z,99194.01
2023-04-16T01:26:06.961Z,99192.60
2023-04-16T01:28:36.582Z,99193.95
2023-04-16T01:31:05.162Z,99192.23
2023-04-16T01:34:06.229Z,99189.66
2023-04-16T01:36:36.100Z,99188.31
2023-04-16T01:39:04.513Z,99188.56
2023-04-16T01:41:33.061Z,99198.55
2023-04-16T01:44:01.560Z,99200.45
2023-04-16T01:46:33.754Z,99196.86
2023-04-16T01:49:02.895Z,99193.81
2023-04-16T01:51:32.495Z,99192.29
2023-04-16T01:54:01.074Z,99187.94
2023-04-16T01:56:29.523Z,99185.16
2023-04-16T01:58:57.937Z,99180.98
2023-04-16T02:01:27.185Z,99181.64
2023-04-16T02:03:57.493Z,99185.58
2023-04-16T02:06:27.579Z,99184.94
2023-04-16T02:08:56.363Z,99189.13
2023-04-16T02:11:24.837Z,99186.36
2023-04-16T02:13:53.507Z,99189.77
2023-04-16T02:16:22.434Z,99190.96
2023-04-16T02:18:54.015Z,99191.13
2023-04-16T02:21:23.359Z,99192.34
2023-04-16T02:23:52.212Z,99194.54
2023-04-16T02:26:25.820Z,99191.95
2023-04-16T02:28:55.358Z,99193.80
2023-04-16T02:31:26.662Z,99195.87
2023-04-16T02:33:55.084Z,99205.10
2023-04-16T02:36:23.454Z,99201.72
2023-04-16T02:38:51.828Z,99200.06
2023-04-16T02:41:20.614Z,99195.69
2023-04-16T02:43:48.989Z,99196.52
2023-04-16T02:46:17.437Z,99202.00
2023-04-16T02:48:46.007Z,99203.49
2023-04-16T02:51:14.538Z,99206.34
2023-04-16T02:53:46.252Z,99201.29
2023-04-16T02:56:14.874Z,99202.15
2023-04-16T02:58:43.454Z,99202.98
2023-04-16T03:01:11.977Z,99205.54
2023-04-16T03:03:41.231Z,99207.73
2023-04-16T03:06:09.423Z,99211.85
2023-04-16T03:08:38.605Z,99217.99
2023-04-16T03:11:07.629Z,99224.23
2023-04-16T03:13:36.483Z,99221.63
2023-04-16T03:16:05.546Z,99221.27
2023-04-16T03:18:33.951Z,99220.38
2023-04-16T03:21:02.333Z,99220.20
2023-04-16T03:23:31.692Z,99222.33
2023-04-16T03:26:00.528Z,99215.38
2023-04-16T03:28:29.826Z,99216.42
2023-04-16T03:30:58.379Z,99216.40
2023-04-16T03:33:27.287Z,99219.39
2023-04-16T03:35:57.366Z,99226.18
2023-04-16T03:38:27.930Z,99227.63
2023-04-16T03:40:58.059Z,99229.50
2023-04-16T03:43:26.734Z,99233.35
2023-04-16T03:45:54.996Z,99242.00
2023-04-16T03:48:25.686Z,99247.45
2023-04-16T03:50:54.336Z,99254.43
2023-04-16T03:53:23.741Z,99255.29
2023-04-16T03:55:52.685Z,99261.17
2023-04-16T03:58:22.012Z,99271.80
2023-04-16T04:00:51.985Z,99273.54
2023-04-16T04:03:21.338Z,99273.34
2023-04-16T04:05:50.852Z,99278.55
2023-04-16T04:08:26.311Z,99277.94
2023-04-16T04:10:54.754Z,99279.85
2023-04-16T04:13:24.359Z,99282.33
2023-04-16T04:15:52.983Z,99284.80
2023-04-16T04:18:22.460Z,99284.23
2023-04-16T04:20:50.823Z,99281.33
2023-04-16T04:23:21.616Z,99279.47
2023-04-16T04:25:50.154Z,99282.29
2023-04-16T04:28:19.537Z,99277.52
2023-04-16T04:30:48.431Z,99284.19
2023-04-16T04:33:17.525Z,99286.28
2023-04-16T04:35:46.209Z,99286.00
2023-04-16T04:38:20.000Z,99286.96
2023-04-16T04:40:49.107Z,99286.42
2023-04-16T04:43:19.924Z,99288.94
2023-04-16T04:45:49.534Z,99291.23
2023-04-16T04:48:18.754Z,99295.11
2023-04-16T04:50:47.531Z,99297.58
2023-04-16T04:53:16.421Z,99300.21
2023-04-16T04:55:44.785Z,99302.34
2023-04-16T04:58:13.732Z,99304.68
2023-04-16T05:00:43.182Z,99306.66
2023-04-16T05:03:12.889Z,99309.65
2023-04-16T05:05:41.887Z,99308.30
2023-04-16T05:08:10.675Z,99309.78
2023-04-16T05:10:38.948Z,99308.02
2023-04-16T05:13:07.844Z,99310.20
2023-04-16T05:15:36.323Z,99312.92
2023-04-16T05:18:04.750Z,99311.98
2023-04-16T05:20:33.734Z,99313.44
2023-04-16T05:23:02.162Z,99311.77
2023-04-16T05:25:31.269Z,99311.85
2023-04-16T05:27:59.693Z,99313.27
2023-04-16T05:30:27.996Z,99312.18
2023-04-16T05:32:56.601Z,99311.56
2023-04-16T05:35:25.099Z,99315.41
2023-04-16T05:37:53.793Z,99312.02
2023-04-16T05:40:22.268Z,99315.02
2023-04-16T05:42:50.498Z,99312.86
2023-04-16T05:45:18.889Z,99318.49
2023-04-16T05:47:47.725Z,99319.45
2023-04-16T05:50:16.107Z,99322.48
2023-04-16T05:52:45.373Z,99325.42
2023-04-16T05:55:13.589Z,99328.23
2023-04-16T05:57:42.002Z,99328.61
2023-04-16T06:00:11.348Z,99328.50
2023-04-16T06:02:42.763Z,99324.55
2023-04-16T06:05:11.468Z,99321.56
2023-04-16T06:07:40.015Z,99327.59
2023-04-16T06:10:09.112Z,99324.38
2023-04-16T06:12:37.740Z,99326.61
2023-04-16T06:15:07.235Z,99329.70
2023-04-16T06:17:37.132Z,99331.42
2023-04-16T06:20:06.232Z,99330.55
2023-04-16T06:22:34.815Z,99330.03
2023-04-16T06:25:03.197Z,99327.73
2023-04-16T06:27:32.104Z,99328.58
2023-04-16T06:30:00.877Z,99330.73
2023-04-16T06:32:29.352Z,99332.05
2023-04-16T06:34:58.959Z,99332.66
2023-04-16T06:37:27.653Z,99336.20
2023-04-16T06:39:56.089Z,99334.55
2023-04-16T06:42:24.470Z,99334.27
2023-04-16T06:44:53.145Z,99335.33
2023-04-16T06:47:22.442Z,99334.06
2023-04-16T06:49:51.236Z,99338.16
2023-04-16T06:52:19.612Z,99338.92
2023-04-16T06:54:48.510Z,99336.92
2023-04-16T06:57:16.980Z,99340.86
2023-04-16T06:59:45.774Z,99336.05
2023-04-16T07:02:14.179Z,99339.27
2023-04-16T07:04:43.026Z,99338.80
2023-04-16T07:07:11.725Z,99340.95
2023-04-16T07:09:40.603Z,99339.79
2023-04-16T07:12:09.184Z,99340.52
2023-04-16T07:14:37.684Z,99343.66
2023-04-16T07:17:06.585Z,99346.24
2023-04-16T07:19:35.759Z,99347.09
2023-04-16T07:22:04.441Z,99348.30
2023-04-16T07:24:33.324Z,99351.83
2023-04-16T07:27:01.704Z,99355.50
2023-04-16T07:29:30.192Z,99359.30
2023-04-16T07:31:58.732Z,99355.48
2023-04-16T07:34:27.875Z,99356.77
2023-04-16T07:36:56.442Z,99362.23
2023-04-16T07:39:25.123Z,99354.60
2023-04-16T07:41:53.521Z,99359.36
2023-04-16T07:44:21.910Z,99359.20
2023-04-16T07:46:53.082Z,99361.16
2023-04-16T07:49:22.118Z,99360.00
2023-04-16T07:51:50.410Z,99358.27
2023-04-16T07:54:19.077Z,99360.92
2023-04-16T07:56:47.968Z,99361.48
2023-04-16T07:59:22.781Z,99359.75
2023-04-16T08:01:53.261Z,99363.80
2023-04-16T08:04:25.978Z,99365.40
2023-04-16T08:06:55.911Z,99359.65
2023-04-16T08:09:27.314Z,99355.30
2023-04-16T08:11:55.639Z,99357.21
2023-04-16T08:14:24.036Z,99358.08
2023-04-16T08:16:52.704Z,99356.31
2023-04-16T08:19:21.180Z,99358.77
2023-04-16T08:21:50.236Z,99359.98
2023-04-16T08:24:19.060Z,99361.01
2023-04-16T08:26:47.756Z,99365.17
2023-04-16T08:29:18.623Z,99366.89
2023-04-16T08:31:49.818Z,99367.57
2023-04-16T08:34:18.615Z,99366.33
2023-04-16T08:36:47.399Z,99367.56
2023-04-16T08:39:15.892Z,99366.85
2023-04-16T08:41:46.283Z,99363.35
2023-04-16T08:44:34.507Z,99366.50
2023-04-16T08:47:02.984Z,99362.69
2023-04-16T08:49:31.534Z,99363.23
2023-04-16T08:51:59.988Z,99368.84
2023-04-16T08:54:56.767Z,99367.48
2023-04-16T08:57:29.855Z,99366.08
2023-04-16T08:59:58.039Z,99365.55
2023-04-16T09:02:27.060Z,99366.26
2023-04-16T09:04:55.697Z,99366.26
2023-04-16T09:07:24.177Z,99366.95
2023-04-16T09:09:52.389Z,99367.82
2023-04-16T09:12:26.151Z,99367.27
2023-04-16T09:14:54.701Z,99372.85
2023-04-16T09:17:23.136Z,99371.79
2023-04-16T09:19:51.553Z,99370.92
2023-04-16T09:22:20.672Z,99371.85
2023-04-16T09:24:49.237Z,99369.60
2023-04-16T09:27:17.613Z,99365.42
2023-04-16T09:29:47.120Z,99365.77
2023-04-16T09:32:16.298Z,99365.95
2023-04-16T09:35:01.265Z,99367.35
2023-04-16T09:37:30.973Z,99370.85
2023-04-16T09:40:01.108Z,99371.38
2023-04-16T09:42:34.108Z,99370.50
2023-04-16T09:45:04.926Z,99368.40
2023-04-16T09:47:45.437Z,99372.08
2023-04-16T09:50:19.129Z,99368.05
2023-04-16T09:52:54.053Z,99366.48
2023-04-16T09:55:27.701Z,99362.95
2023-04-16T09:58:00.716Z,99355.55
2023-04-16T10:00:30.419Z,99355.71
2023-04-16T10:03:08.319Z,99358.50
2023-04-16T10:05:44.080Z,99360.58
2023-04-16T10:08:13.697Z,99357.60
2023-04-16T10:10:42.263Z,99359.71
2023-04-16T10:13:12.942Z,99358.84
2023-04-16T10:15:41.323Z,99356.88
2023-04-16T10:18:10.220Z,99353.70
2023-04-16T10:20:38.758Z,99351.55
2023-04-16T10:23:09.087Z,99352.02
2023-04-16T10:25:38.535Z,99350.39
2023-04-16T10:28:09.898Z,99355.63
2023-04-16T10:30:38.813Z,99353.69
2023-04-16T10:33:07.576Z,99355.63
2023-04-16T10:35:40.690Z,99358.25
2023-04-16T10:38:29.595Z,99361.25
2023-04-16T10:41:04.882Z,99362.66
2023-04-16T10:43:40.008Z,99364.04
2023-04-16T10:46:18.437Z,99360.30
2023-04-16T10:48:50.341Z,99361.66
2023-04-16T10:51:32.770Z,99359.39
2023-04-16T10:54:14.792Z,99362.38
2023-04-16T10:56:43.896Z,99363.29
2023-04-16T10:59:12.406Z,99369.05
2023-04-16T11:01:44.780Z,99364.48
2023-04-16T11:04:19.707Z,99366.88
2023-04-16T11:07:00.531Z,99362.41
2023-04-16T11:09:47.588Z,99360.77
2023-04-16T11:12:18.679Z,99367.06
2023-04-16T11:14:51.792Z,99373.58
2023-04-16T11:17:20.939Z,99374.83
2023-04-16T11:19:49.300Z,99375.15
2023-04-16T11:22:17.745Z,99374.45
2023-04-16T11:24:56.809Z,99379.59
2023-04-16T11:27:25.604Z,99382.66
2023-04-16T11:30:13.890Z,99385.66
2023-04-16T11:32:43.003Z,99387.64
2023-04-16T11:35:15.452Z,99388.41
2023-04-16T11:37:43.678Z,99389.85
2023-04-16T11:40:13.155Z,99388.29
2023-04-16T11:42:42.938Z,99391.09
2023-04-16T11:45:12.242Z,99394.22
2023-04-16T11:47:52.808Z,99393.52
2023-04-16T11:50:25.598Z,99398.59
2023-04-16T11:53:03.284Z,99398.23
2023-04-16T11:55:31.964Z,99395.79
2023-04-16T11:58:11.915Z,99392.98
2023-04-16T12:00:41.740Z,99391.06
2023-04-16T12:03:10.506Z,99387.75
2023-04-16T12:05:41.254Z,99390.04
2023-04-16T12:08:11.411Z,99391.11
2023-04-16T12:10:55.212Z,99392.69
2023-04-16T12:13:23.684Z,99392.01
2023-04-16T12:15:53.830Z,99392.93
2023-04-16T12:18:28.845Z,99393.86
2023-04-16T12:20:57.123Z,99398.44
2023-04-16T12:23:30.000Z,99395.30
2023-04-16T12:26:02.796Z,99393.00
2023-04-16T12:28:32.393Z,99397.36
2023-04-16T12:31:01.994Z,99394.09
2023-04-16T12:33:30.577Z,99397.23
2023-04-16T12:35:58.960Z,99398.11
2023-04-16T12:38:28.294Z,99393.90
2023-04-16T12:40:57.802Z,99397.07
2023-04-16T12:43:26.659Z,99397.63
2023-04-16T12:45:55.651Z,99401.29
2023-04-16T12:48:24.011Z,99405.66
2023-04-16T12:50:54.127Z,99405.13
2023-04-16T12:53:22.709Z,99409.50
2023-04-16T12:55:52.007Z,99412.48
2023-04-16T12:58:23.364Z,99414.58
2023-04-16T13:00:52.045Z,99414.73
2023-04-16T13:03:21.383Z,99411.07
2023-04-16T13:05:49.944Z,99406.16
2023-04-16T13:08:18.713Z,99406.66
2023-04-16T13:10:47.110Z,99404.19
2023-04-16T13:13:16.706Z,99406.98
2023-04-16T13:15:45.711Z,99405.94
2023-04-16T13:18:20.029Z,99406.81
2023-04-16T13:21:12.415Z,99408.20
2023-04-16T13:32:30.076Z,99410.83
2023-04-16T13:34:58.970Z,99414.98
2023-04-16T13:37:29.149Z,99417.27
2023-04-16T13:39:59.045Z,99417.45
2023-04-16T13:42:28.949Z,99421.46
2023-04-16T13:44:58.406Z,99426.51
2023-04-16T13:47:26.854Z,99428.25
2023-04-16T13:49:55.864Z,99424.06
2023-04-16T13:52:24.390Z,99425.45
2023-04-16T13:54:52.743Z,99428.94
2023-04-16T13:57:36.135Z,99425.81
2023-04-16T14:00:05.763Z,99421.06
2023-04-16T14:02:35.007Z,99424.73
2023-04-16T14:05:04.711Z,99426.48
2023-04-16T14:07:33.930Z,99425.09
2023-04-16T14:10:02.696Z,99421.95
2023-04-16T14:12:32.015Z,99420.35
2023-04-16T14:15:02.297Z,99421.73
2023-04-16T14:17:31.653Z,99421.73
2023-04-16T14:20:00.227Z,99420.51
2023-04-16T14:22:29.004Z,99425.41
2023-04-16T14:24:57.650Z,99428.67
2023-04-16T14:27:26.475Z,99432.33
2023-04-16T14:29:56.031Z,99432.65
2023-04-16T14:32:24.360Z,99432.79
2023-04-16T14:34:52.711Z,99434.83
2023-04-16T14:37:21.516Z,99434.98
2023-04-16T14:39:50.722Z,99435.48
2023-04-16T14:42:18.989Z,99438.39
2023-04-16T14:47:46.126Z,99439.36
2023-04-16T14:50:18.212Z,99445.92
2023-04-16T14:57:09.662Z,99441.84
2023-04-16T15:04:42.171Z,99439.73
2023-04-16T15:07:10.851Z,99443.54
2023-04-16T15:09:39.132Z,99441.95
2023-04-16T15:12:07.811Z,99438.39
2023-04-16T15:14:36.905Z,99440.67
2023-04-16T15:17:05.438Z,99439.56
2023-04-16T15:19:33.876Z,99441.33
2023-04-16T15:22:02.295Z,99443.75
2023-04-16T15:24:31.651Z,99444.02
2023-04-16T15:27:02.353Z,99446.25
2023-04-16T15:29:31.171Z,99445.38
2023-04-16T15:32:00.780Z,99448.66
2023-04-16T15:34:30.592Z,99446.70
2023-04-16T15:36:58.857Z,99448.13
2023-04-16T15:39:27.245Z,99445.44
2023-04-16T15:42:00.449Z,99449.24
2023-04-16T15:44:31.324Z,99449.91
2023-04-16T15:47:01.615Z,99451.99
2023-04-16T15:49:33.427Z,99453.27
2023-04-16T15:52:02.060Z,99449.46
2023-04-16T15:54:31.868Z,99453.64
2023-04-16T15:57:01.718Z,99453.42
2023-04-16T15:59:30.144Z,99454.65
2023-04-16T16:01:59.719Z,99456.61
2023-04-16T16:04:30.668Z,99454.30
2023-04-16T16:06:59.834Z,99458.12
2023-04-16T16:09:28.326Z,99460.66
2023-04-16T16:11:59.780Z,99459.77
2023-04-16T16:14:28.506Z,99462.60
2023-04-16T16:16:57.173Z,99464.35
2023-04-16T16:19:25.949Z,99466.77
2023-04-16T16:21:54.539Z,99469.75
2023-04-16T16:24:23.125Z,99466.09
2023-04-16T16:26:51.807Z,99468.34
2023-04-16T16:29:21.418Z,99469.55
2023-04-16T16:31:51.124Z,99470.09
2023-04-16T16:34:21.402Z,99473.59
2023-04-16T16:36:50.711Z,99472.05
2023-04-16T16:39:22.690Z,99469.75
2023-04-16T16:41:52.789Z,99470.11
2023-04-16T16:44:21.557Z,99474.80
2023-04-16T16:46:50.742Z,99475.95
2023-04-16T16:49:19.079Z,99477.47
2023-04-16T16:51:48.193Z,99486.98
2023-04-16T16:54:16.547Z,99491.33
2023-04-16T16:59:55.277Z,99493.58
2023-04-16T17:02:24.012Z,99496.83
2023-04-16T17:04:52.963Z,99499.77
2023-04-16T17:07:24.043Z,99500.62
2023-04-16T17:09:54.042Z,99501.83
2023-04-16T17:12:23.828Z,99505.11
2023-04-16T17:14:53.248Z,99504.06
2023-04-16T17:17:21.964Z,99506.59
2023-04-16T17:19:50.533Z,99507.52
2023-04-16T17:22:19.577Z,99508.72
2023-04-16T17:24:49.443Z,99507.48
2023-04-16T17:27:18.235Z,99512.70
2023-04-16T17:29:46.737Z,99514.09
2023-04-16T17:32:16.228Z,99516.62
2023-04-16T17:34:46.032Z,99522.14
2023-04-16T17:37:14.628Z,99517.73
2023-04-16T17:39:42.856Z,99518.06
2023-04-16T17:42:11.370Z,99519.52
2023-04-16T17:44:39.845Z,99520.08
2023-04-16T17:47:08.320Z,99521.80
2023-04-16T17:49:36.593Z,99523.05
2023-04-16T17:52:05.282Z,99522.55
2023-04-16T17:54:33.761Z,99522.15
2023-04-16T17:57:02.549Z,99521.64
2023-04-16T17:59:30.926Z,99525.46
2023-04-16T18:01:59.485Z,99526.20
2023-04-16T18:04:28.410Z,99526.96
2023-04-16T18:06:57.082Z,99527.16
2023-04-16T18:09:26.488Z,99528.81
2023-04-16T18:11:55.170Z,99526.30
2023-04-16T18:14:23.853Z,99524.17
2023-04-16T18:16:52.281Z,99524.58
2023-04-16T18:19:20.911Z,99523.45
2023-04-16T18:21:49.127Z,99520.98
2023-04-16T18:24:18.555Z,99523.92
2023-04-16T18:26:47.284Z,99526.11
2023-04-16T18:29:17.730Z,99524.38
2023-04-16T18:31:46.639Z,99522.26
2023-04-16T18:34:15.501Z,99530.57
2023-04-16T18:36:43.718Z,99530.89
2023-04-16T18:39:12.235Z,99533.10
2023-04-16T18:41:43.902Z,99528.38
2023-04-16T18:44:13.087Z,99525.96
2023-04-16T18:46:41.371Z,99528.95
2023-04-16T18:49:10.202Z,99530.63
2023-04-16T18:51:39.032Z,99538.43
2023-04-16T18:54:07.559Z,99536.52
2023-04-16T18:56:36.405Z,99539.26
2023-04-16T18:59:04.771Z,99538.14
2023-04-16T19:01:33.559Z,99539.88
2023-04-16T19:04:01.822Z,99539.77
2023-04-16T19:06:50.995Z,99534.16
2023-04-16T19:09:20.294Z,99533.27
2023-04-16T19:11:50.673Z,99532.09
2023-04-16T19:14:18.974Z,99533.80
2023-04-16T19:16:47.580Z,99530.30
2023-04-16T19:19:17.240Z,99527.54
2023-04-16T19:21:45.981Z,99524.59
2023-04-16T19:24:14.330Z,99524.75
2023-04-16T19:26:42.732Z,99522.92
2023-04-16T19:29:11.296Z,99523.23
2023-04-16T19:31:39.906Z,99522.63
2023-04-16T19:34:08.538Z,99524.34
2023-04-16T19:36:36.895Z,99524.71
2023-04-16T19:39:05.743Z,99523.83
2023-04-16T19:41:34.015Z,99523.05
2023-04-16T19:44:02.794Z,99526.55
2023-04-16T19:46:31.182Z,99526.58
2023-04-16T19:49:00.273Z,99526.22
2023-04-16T19:51:28.652Z,99525.86
2023-04-16T19:53:59.001Z,99522.76
2023-04-16T19:56:27.352Z,99525.35
2023-04-16T19:58:56.651Z,99521.66
2023-04-16T20:01:25.180Z,99523.58
2023-04-16T20:03:54.749Z,99520.26
2023-04-16T20:06:24.234Z,99519.73
2023-04-16T20:08:52.960Z,99519.59
2023-04-16T20:11:21.615Z,99519.44
2023-04-16T20:13:50.315Z,99523.10
2023-04-16T20:16:24.080Z,99522.03
2023-04-16T20:18:54.468Z,99523.39
2023-04-16T20:21:22.860Z,99525.99
2023-04-16T20:23:51.380Z,99530.85
2023-04-16T20:26:19.760Z,99528.91
2023-04-16T20:28:48.751Z,99529.94
2023-04-16T20:31:17.163Z,99530.23
2023-04-16T20:33:46.020Z,99533.36
2023-04-16T20:36:15.618Z,99535.84
2023-04-16T20:38:45.186Z,99536.55
2023-04-16T20:41:20.408Z,99541.25
2023-04-16T20:43:52.932Z,99538.98
2023-04-16T20:46:30.363Z,99535.99
2023-04-16T20:48:58.904Z,99535.46
2023-04-16T20:51:29.944Z,99532.83
2023-04-16T20:53:59.036Z,99537.05
2023-04-16T20:56:27.435Z,99535.83
2023-04-16T20:58:56.203Z,99534.08
2023-04-16T21:01:24.533Z,99533.02
2023-04-16T21:03:53.499Z,99533.04
2023-04-16T21:06:22.705Z,99535.14
2023-04-16T21:08:51.290Z,99534.91
2023-04-16T21:11:19.735Z,99536.64
2023-04-16T21:13:52.144Z,99534.34
2023-04-16T21:16:20.814Z,99531.83
2023-04-16T21:18:49.043Z,99532.31
2023-04-16T21:21:17.337Z,99532.11
2023-04-16T21:23:45.962Z,99532.84
2023-04-16T21:26:14.218Z,99534.29
2023-04-16T21:28:42.437Z,99533.38
2023-04-16T21:31:11.200Z,99528.52
2023-04-16T21:33:39.842Z,99526.55
2023-04-16T21:36:08.415Z,99530.15
2023-04-16T21:38:39.669Z,99526.80
2023-04-16T21:41:08.059Z,99526.62
2023-04-16T21:43:36.553Z,99521.90
2023-04-16T21:46:05.079Z,99518.55
2023-04-16T21:48:33.612Z,99518.21
2023-04-16T21:51:06.677Z,99516.64
2023-04-16T21:53:35.481Z,99514.21
2023-04-16T21:56:04.137Z,99515.76
2023-04-16T21:58:33.028Z,99514.17
2023-04-16T22:01:01.874Z,99516.41
2023-04-16T22:03:31.136Z,99515.81
2023-04-16T22:06:02.458Z,99515.11
2023-04-16T22:08:31.245Z,99514.09
2023-04-16T22:11:01.672Z,99512.56
2023-04-16T22:13:32.724Z,99512.75
2023-04-16T22:16:04.143Z,99509.05
2023-04-16T22:18:33.254Z,99507.52
2023-04-16T22:21:02.914Z,99506.63
2023-04-16T22:23:31.475Z,99508.55
2023-04-16T22:25:59.814Z,99506.45
2023-04-16T22:28:28.307Z,99507.02
2023-04-16T22:30:57.131Z,99502.67
2023-04-16T22:33:28.639Z,99503.85
2023-04-16T22:35:57.269Z,99500.38
2023-04-16T22:38:25.706Z,99502.98
2023-04-16T22:40:54.183Z,99504.21
2023-04-16T22:43:23.187Z,99504.04
2023-04-16T22:46:02.538Z,99505.61
2023-04-16T22:48:31.806Z,99506.50
2023-04-16T22:50:59.974Z,99506.02
2023-04-16T22:53:28.431Z,99505.66
2023-04-16T22:55:56.862Z,99505.47
2023-04-16T22:58:25.309Z,99502.52
2023-04-16T23:00:54.538Z,99500.42
2023-04-16T23:03:23.100Z,99500.77
2023-04-16T23:05:51.676Z,99500.59
2023-04-16T23:08:21.172Z,99494.87
2023-04-16T23:10:49.552Z,99492.15
2023-04-16T23:13:18.134Z,99488.60
2023-04-16T23:15:47.472Z,99485.41
2023-04-16T23:18:16.386Z,99482.98
2023-04-16T23:20:44.804Z,99478.30
2023-04-16T23:23:13.192Z,99473.23
2023-04-16T23:25:41.765Z,99465.58
2023-04-16T23:28:10.034Z,99462.23
2023-04-16T23:30:38.358Z,99457.19
2023-04-16T23:33:06.962Z,99459.45
2023-04-16T23:35:35.344Z,99462.05
2023-04-16T23:38:03.752Z,99463.14
2023-04-16T23:40:32.221Z,99461.23
2023-04-16T23:43:00.835Z,99461.21
2023-04-16T23:45:29.331Z,99461.75
2023-04-16T23:47:57.879Z,99460.82
2023-04-16T23:50:26.456Z,99464.20
2023-04-16T23:52:54.726Z,99466.95
2023-04-16T23:55:23.208Z,99467.15
2023-04-16T23:57:51.740Z,99470.78
